Time;durP1;ratioP1;P1;durP2;ratioP2;P2;SDS_P1;SDS_P2;PMS_P1;PMS_P2;Temp;Humidity;BMP_temperature;BMP_pressure;BME280_temperature;BME280_humidity;BME280_pressure;Samples;Min_cycle;Max_cycle;Signal;HPM_P1;HPM_P2
2022/08/07 00:00:48;;;;;;;17.02;8.95;;;;;;;22.95;65.73;100898.67;1775685;80;25695;-55
2022/08/07 00:03:15;;;;;;;12.43;8.65;;;;;;;22.94;65.89;100900.27;1775559;79;25723;-55
2022/08/07 00:05:42;;;;;;;14.93;9.33;;;;;;;22.90;66.92;100899.86;1776131;79;25756;-54
2022/08/07 00:08:09;;;;;;;19.92;9.13;;;;;;;22.75;66.57;100904.21;1780122;79;27464;-55
2022/08/07 00:10:36;;;;;;;13.25;9.00;;;;;;;22.70;66.23;100908.14;1785230;80;26120;-56
2022/08/07 00:13:05;;;;;;;12.95;9.35;;;;;;;22.70;66.09;100906.77;1785005;79;25787;-56
2022/08/07 00:15:33;;;;;;;21.80;10.75;;;;;;;22.67;66.31;100912.66;1786755;80;25769;-54
2022/08/07 00:18:00;;;;;;;12.35;9.75;;;;;;;22.59;66.24;100912.34;1786794;80;25706;-54
2022/08/07 00:20:27;;;;;;;15.90;10.63;;;;;;;22.57;66.34;100912.25;1786486;79;27389;-55
2022/08/07 00:22:53;;;;;;;15.98;9.75;;;;;;;22.49;66.33;100912.80;1786705;80;25761;-54
2022/08/07 00:25:23;;;;;;;17.73;9.90;;;;;;;22.46;66.59;100919.23;1786693;80;25462;-56
2022/08/07 00:27:50;;;;;;;16.10;9.23;;;;;;;22.42;66.56;100924.80;1775408;80;27590;-55
2022/08/07 00:30:18;;;;;;;11.73;10.20;;;;;;;22.32;66.90;100920.55;1775654;80;25695;-55
2022/08/07 00:32:49;;;;;;;14.58;10.18;;;;;;;22.28;66.88;100925.30;1775781;79;28836;-55
2022/08/07 00:35:20;;;;;;;19.02;9.90;;;;;;;22.25;67.07;100921.63;1775590;80;25787;-55
2022/08/07 00:37:48;;;;;;;17.17;10.23;;;;;;;22.25;67.58;100917.52;1775674;80;25711;-55
2022/08/07 00:40:14;;;;;;;13.48;9.98;;;;;;;22.22;67.46;100927.52;1775751;79;25493;-55
2022/08/07 00:42:42;;;;;;;14.15;9.73;;;;;;;22.22;67.85;100926.14;1775680;80;25727;-55
2022/08/07 00:45:11;;;;;;;15.32;9.75;;;;;;;22.19;67.47;100929.62;1775662;80;28506;-55
2022/08/07 00:47:38;;;;;;;18.67;10.63;;;;;;;22.20;67.46;100934.59;1736683;82;25474;-55
2022/08/07 00:50:07;;;;;;;15.20;9.53;;;;;;;22.23;67.61;100934.69;1782022;80;25727;-54
2022/08/07 00:52:34;;;;;;;23.45;10.35;;;;;;;22.25;67.52;100933.42;1781837;80;26193;-56
2022/08/07 00:55:01;;;;;;;16.95;10.25;;;;;;;22.26;67.54;100928.26;1781700;80;25884;-54
2022/08/07 00:57:29;;;;;;;23.25;10.20;;;;;;;22.25;67.40;100925.73;1781622;80;28295;-54
2022/08/07 00:59:56;;;;;;;16.90;9.93;;;;;;;22.21;67.54;100929.42;1781482;80;27295;-56
2022/08/07 01:02:24;;;;;;;25.17;10.30;;;;;;;22.24;68.56;100940.48;1781447;79;25710;-55
2022/08/07 01:04:53;;;;;;;17.05;9.93;;;;;;;22.21;67.90;100949.98;1782776;79;25624;-54
2022/08/07 01:07:23;;;;;;;18.02;9.28;;;;;;;22.18;67.83;100943.02;1783553;79;26400;-55
2022/08/07 01:09:50;;;;;;;19.10;9.33;;;;;;;22.11;67.66;100936.67;1775693;80;27485;-55
2022/08/07 01:12:18;;;;;;;11.10;8.48;;;;;;;21.88;67.93;100937.91;1775515;80;26001;-54
2022/08/07 01:14:46;;;;;;;11.35;9.05;;;;;;;21.83;69.06;100941.78;1770323;80;25751;-56
2022/08/07 01:17:13;;;;;;;19.62;8.78;;;;;;;21.84;68.97;100942.10;1767825;81;25811;-54
2022/08/07 01:19:42;;;;;;;15.78;8.50;;;;;;;21.88;69.22;100943.39;1767954;81;25785;-54
2022/08/07 01:22:10;;;;;;;14.30;8.50;;;;;;;21.86;69.32;100946.85;1767671;81;27458;-55
2022/08/07 01:24:40;;;;;;;15.43;8.35;;;;;;;21.87;69.11;100947.72;1772974;79;27302;-55
2022/08/07 01:27:09;;;;;;;13.25;8.13;;;;;;;21.87;69.23;100948.55;1775807;78;25941;-54
2022/08/07 01:29:36;;;;;;;14.38;7.87;;;;;;;21.83;68.92;100947.25;1775619;80;26218;-53
2022/08/07 01:32:04;;;;;;;15.48;7.90;;;;;;;21.81;69.67;100954.86;1775637;80;25822;-55
2022/08/07 01:34:32;;;;;;;11.75;8.08;;;;;;;21.70;69.77;100960.92;1775737;80;27684;-55
2022/08/07 01:37:01;;;;;;;15.83;8.50;;;;;;;21.67;69.67;100955.34;1774859;80;25857;-55
2022/08/07 01:39:29;;;;;;;14.18;7.92;;;;;;;21.68;69.58;100957.54;1775712;79;25743;-55
2022/08/07 01:41:58;;;;;;;8.88;7.97;;;;;;;21.71;69.43;100957.97;1774708;80;26318;-55
2022/08/07 01:44:27;;;;;;;12.43;8.18;;;;;;;21.73;69.23;100955.05;1775573;80;25842;-55
2022/08/07 01:46:55;;;;;;;17.48;7.85;;;;;;;21.74;69.04;100959.45;1769860;80;28171;-55
2022/08/07 01:49:24;;;;;;;13.00;7.75;;;;;;;21.75;69.44;100966.61;1767608;81;26625;-53
2022/08/07 01:51:52;;;;;;;13.88;8.10;;;;;;;21.73;69.16;100968.73;1767602;81;25695;-55
2022/08/07 01:54:22;;;;;;;11.20;8.10;;;;;;;21.72;69.01;100967.05;1767782;81;25758;-55
2022/08/07 01:57:02;;;;;;;17.20;8.40;;;;;;;21.68;69.51;100960.27;1767182;81;26074;-55
2022/08/07 01:59:34;;;;;;;16.77;8.10;;;;;;;21.57;70.57;100960.32;1766714;79;28614;-55
2022/08/07 02:02:10;;;;;;;15.15;7.92;;;;;;;21.43;69.85;100960.25;1737428;81;25679;-55
2022/08/07 02:04:45;;;;;;;11.18;8.08;;;;;;;21.44;69.79;100962.48;1766180;81;25750;-55
2022/08/07 02:07:16;;;;;;;13.13;7.20;;;;;;;21.43;69.79;100954.78;1767902;80;25707;-55
2022/08/07 02:09:46;;;;;;;13.70;8.25;;;;;;;21.40;70.52;100964.78;1775917;80;25770;-55
2022/08/07 02:12:15;;;;;;;13.25;8.00;;;;;;;21.36;70.65;100961.28;1775514;80;27312;-56
2022/08/07 02:14:52;;;;;;;16.93;8.30;;;;;;;21.35;70.20;100966.44;1775527;79;26432;-55
2022/08/07 02:17:24;;;;;;;12.65;8.93;;;;;;;21.25;69.86;100964.91;1774771;80;25734;-55
2022/08/07 02:19:54;;;;;;;21.02;8.68;;;;;;;21.17;70.51;100968.33;1775874;80;25718;-55
2022/08/07 02:22:23;;;;;;;11.28;7.90;;;;;;;21.18;70.74;100968.14;1775665;80;26127;-55
2022/08/07 02:24:53;;;;;;;12.55;7.87;;;;;;;21.23;71.27;100976.58;1769501;80;26762;-55
2022/08/07 02:27:24;;;;;;;21.02;9.00;;;;;;;21.18;71.50;100976.35;1767826;79;25793;-55
2022/08/07 02:29:52;;;;;;;10.80;7.85;;;;;;;21.14;71.08;100973.69;1767977;79;25802;-55
2022/08/07 02:32:20;;;;;;;11.48;8.28;;;;;;;21.17;71.09;100978.77;1767940;80;26406;-54
2022/08/07 02:34:50;;;;;;;15.38;7.97;;;;;;;21.20;70.88;100980.24;1768039;80;25747;-55
2022/08/07 02:37:22;;;;;;;16.20;8.58;;;;;;;21.22;70.61;100979.53;1768004;81;27446;-55
2022/08/07 02:39:51;;;;;;;12.37;8.45;;;;;;;21.24;70.55;100974.70;1767839;81;25944;-55
2022/08/07 02:42:20;;;;;;;16.12;8.88;;;;;;;21.28;70.56;100977.34;1768072;79;25790;-55
2022/08/07 02:44:51;;;;;;;14.07;8.30;;;;;;;21.33;70.43;100978.09;1767911;81;25513;-55
2022/08/07 02:47:21;;;;;;;12.98;8.05;;;;;;;21.36;70.49;100984.55;1763043;79;26288;-55
2022/08/07 02:49:51;;;;;;;16.70;8.75;;;;;;;21.40;70.43;100992.66;1762203;80;27459;-54
2022/08/07 02:52:23;;;;;;;12.98;7.92;;;;;;;21.43;70.17;100979.41;1762264;81;25731;-55
2022/08/07 02:54:53;;;;;;;16.12;8.40;;;;;;;21.44;70.04;100984.38;1730068;81;25551;-55
2022/08/07 02:57:21;;;;;;;16.27;8.78;;;;;;;21.45;69.77;100992.91;1762254;81;25766;-55
2022/08/07 02:59:50;;;;;;;12.70;7.87;;;;;;;21.44;69.67;100995.32;1761967;81;25969;-55
2022/08/07 03:02:18;;;;;;;14.55;8.40;;;;;;;21.41;69.65;100997.95;1761897;81;27644;-56
2022/08/07 03:04:47;;;;;;;16.85;8.35;;;;;;;21.39;69.49;101004.14;1762256;81;25976;-55
2022/08/07 03:07:16;;;;;;;12.63;8.15;;;;;;;21.36;69.42;101003.70;1730445;80;26100;-55
2022/08/07 03:09:44;;;;;;;18.42;9.68;;;;;;;21.34;69.63;101008.52;1737539;81;25753;-54
2022/08/07 03:12:12;;;;;;;17.05;8.00;;;;;;;21.35;70.03;101006.95;1767912;81;25977;-56
2022/08/07 03:14:41;;;;;;;13.68;8.38;;;;;;;21.41;69.92;101017.10;1764191;79;27443;-55
2022/08/07 03:17:09;;;;;;;10.10;7.72;;;;;;;21.46;69.79;101022.48;1762180;81;25639;-54
2022/08/07 03:19:37;;;;;;;12.45;7.50;;;;;;;21.48;69.62;101028.06;1762398;81;25774;-56
2022/08/07 03:22:11;;;;;;;15.68;7.85;;;;;;;21.52;69.76;101033.47;1729888;81;25768;-54
2022/08/07 03:24:39;;;;;;;15.10;7.87;;;;;;;21.55;69.89;101026.73;1729127;81;26115;-57
2022/08/07 03:27:11;;;;;;;14.83;7.87;;;;;;;21.54;69.57;101030.52;1760431;81;27916;-55
2022/08/07 03:29:53;;;;;;;21.25;7.80;;;;;;;21.53;69.68;101033.79;1767760;81;25878;-55
2022/08/07 03:32:28;;;;;;;17.07;8.10;;;;;;;21.57;69.64;101043.27;1769403;81;25758;-56
2022/08/07 03:34:59;;;;;;;18.03;9.20;;;;;;;21.62;69.59;101039.95;1769968;81;26452;-55
2022/08/07 03:37:33;;;;;;;16.90;8.38;;;;;;;21.63;69.50;101040.81;1741287;81;25790;-55
2022/08/07 03:40:04;;;;;;;15.00;8.33;;;;;;;21.52;69.59;101038.94;1769779;80;27338;-54
2022/08/07 03:42:34;;;;;;;17.60;9.48;;;;;;;21.41;69.28;101047.71;1769707;81;25830;-55
2022/08/07 03:45:03;;;;;;;15.70;10.50;;;;;;;21.41;69.43;101043.61;1770046;81;25781;-55
2022/08/07 03:47:31;;;;;;;14.58;8.63;;;;;;;21.45;69.31;101052.25;1770670;81;26320;-54
2022/08/07 03:50:00;;;;;;;20.95;9.98;;;;;;;21.49;69.11;101049.45;1771165;79;25789;-55
2022/08/07 03:52:29;;;;;;;18.00;10.18;;;;;;;21.47;69.21;101052.37;1770821;80;27636;-55
2022/08/07 03:55:00;;;;;;;19.15;9.55;;;;;;;21.45;68.98;101050.89;1770959;81;25764;-55
2022/08/07 03:57:30;;;;;;;19.27;9.85;;;;;;;21.43;68.83;101049.73;1770919;79;25755;-54
2022/08/07 03:59:58;;;;;;;14.38;9.35;;;;;;;21.41;69.00;101051.31;1770712;81;25782;-54
2022/08/07 04:02:26;;;;;;;15.15;8.85;;;;;;;21.34;69.17;101048.20;1770811;81;25759;-53
2022/08/07 04:04:54;;;;;;;15.78;8.98;;;;;;;21.26;69.44;101053.30;1770638;81;27474;-55
2022/08/07 04:07:22;;;;;;;14.10;8.80;;;;;;;21.22;69.60;101058.86;1771056;81;25954;-55
2022/08/07 04:09:51;;;;;;;17.37;8.83;;;;;;;21.21;69.50;101064.84;1770874;81;25766;-56
2022/08/07 04:12:20;;;;;;;17.23;9.20;;;;;;;21.26;69.50;101065.10;1770933;80;26707;-55
2022/08/07 04:14:48;;;;;;;10.95;9.58;;;;;;;21.36;69.65;101073.48;1770840;81;25730;-54
2022/08/07 04:17:17;;;;;;;14.70;8.73;;;;;;;21.47;69.51;101075.63;1770883;81;27536;-54
2022/08/07 04:19:44;;;;;;;13.20;8.40;;;;;;;21.58;69.28;101078.38;1770654;81;25442;-54
2022/08/07 04:22:13;;;;;;;15.00;8.98;;;;;;;21.71;69.13;101083.08;1771113;79;25810;-54
2022/08/07 04:24:42;;;;;;;11.40;7.97;;;;;;;21.79;68.72;101084.78;1771074;79;26468;-55
2022/08/07 04:27:11;;;;;;;17.35;9.20;;;;;;;21.80;68.43;101080.50;1771382;81;25650;-56
2022/08/07 04:29:38;;;;;;;14.03;8.85;;;;;;;21.80;68.22;101079.12;1774022;79;27484;-54
2022/08/07 04:32:08;;;;;;;18.42;8.70;;;;;;;21.81;68.33;101081.33;1775683;79;25246;-55
2022/08/07 04:34:36;;;;;;;15.43;8.60;;;;;;;21.78;68.20;101082.58;1775958;80;25735;-55
2022/08/07 04:37:04;;;;;;;15.48;8.58;;;;;;;21.79;68.24;101095.23;1775286;79;25694;-56
2022/08/07 04:39:31;;;;;;;15.38;8.18;;;;;;;21.84;68.25;101096.83;1775429;80;25767;-55
2022/08/07 04:42:02;;;;;;;11.73;8.68;;;;;;;21.87;68.21;101098.34;1775781;80;27389;-56
2022/08/07 04:44:30;;;;;;;22.50;9.23;;;;;;;21.81;68.31;101102.73;1775363;80;25847;-56
2022/08/07 04:47:13;;;;;;;17.10;8.70;;;;;;;21.77;68.47;101104.16;1765727;79;25759;-56
2022/08/07 04:49:52;;;;;;;13.48;9.33;;;;;;;21.76;68.57;101106.58;1762083;81;25741;-55
2022/08/07 04:52:36;;;;;;;11.40;8.98;;;;;;;21.77;68.52;101113.75;1762361;81;25967;-55
2022/08/07 04:55:15;;;;;;;;;;;;;;;21.80;68.55;101111.98;1765304;80;27762;-55
2022/08/07 04:57:59;;;;;;;14.73;9.03;;;;;;;21.80;68.80;101109.25;1762426;81;25738;-54
2022/08/07 05:00:45;;;;;;;;;;;;;;;21.83;68.67;101113.47;1765468;78;25761;-53
2022/08/07 05:03:44;;;;;;;12.73;9.40;;;;;;;21.84;68.82;101114.63;1761660;80;25738;-55
2022/08/07 05:06:25;;;;;;;12.50;8.00;;;;;;;21.89;68.86;101116.75;1762108;81;26181;-55
2022/08/07 05:09:13;;;;;;;16.12;8.60;;;;;;;21.96;68.63;101123.64;1772405;80;28341;-56
2022/08/07 05:11:49;;;;;;;14.93;9.18;;;;;;;22.05;68.46;101129.27;1773537;79;25895;-55
2022/08/07 05:14:28;;;;;;;14.33;7.62;;;;;;;22.16;68.18;101125.09;1775738;80;25680;-55
2022/08/07 05:16:59;;;;;;;10.60;8.73;;;;;;;22.23;68.04;101125.13;1774669;80;25554;-55
2022/08/07 05:19:34;;;;;;;64.35;41.85;;;;;;;22.31;67.81;101126.31;1775619;80;25738;-54
2022/08/07 05:22:04;;;;;;;12.05;8.25;;;;;;;22.36;67.65;101132.04;1776010;80;27509;-55
2022/08/07 05:24:34;;;;;;;14.47;7.75;;;;;;;22.44;67.60;101126.40;1770592;80;25723;-56
2022/08/07 05:27:01;;;;;;;12.60;8.15;;;;;;;22.51;67.41;101131.37;1767924;81;25754;-55
2022/08/07 05:29:31;;;;;;;13.25;8.23;;;;;;;22.59;67.18;101130.85;1778040;80;25758;-55
2022/08/07 05:32:00;;;;;;;12.60;8.13;;;;;;;22.62;66.85;101127.70;1792809;80;25726;-55
2022/08/07 05:34:30;;;;;;;12.73;9.05;;;;;;;22.68;66.72;101126.03;1793060;78;28364;-55
2022/08/07 05:36:58;;;;;;;14.35;8.58;;;;;;;22.79;66.58;101128.14;1792756;78;25736;-54
2022/08/07 05:39:30;;;;;;;15.30;8.78;;;;;;;22.91;66.71;101133.33;1792807;78;25448;-54
2022/08/07 05:41:59;;;;;;;11.03;8.25;;;;;;;23.02;66.61;101130.48;1792636;80;25692;-55
2022/08/07 05:44:30;;;;;;;11.45;8.18;;;;;;;23.08;66.24;101128.29;1793069;78;26023;-55
2022/08/07 05:47:00;;;;;;;14.95;8.73;;;;;;;23.12;65.89;101132.28;1779386;80;27461;-55
2022/08/07 05:49:27;;;;;;;19.75;8.23;;;;;;;23.19;65.76;101136.44;1766598;80;25786;-53
2022/08/07 05:51:55;;;;;;;10.68;8.23;;;;;;;23.25;65.76;101132.84;1792757;80;25683;-56
2022/08/07 05:54:23;;;;;;;11.93;8.05;;;;;;;23.31;65.63;101136.64;1793225;78;25778;-55
2022/08/07 05:56:53;;;;;;;16.60;7.20;;;;;;;23.35;65.39;101141.17;1792424;80;25465;-55
2022/08/07 05:59:22;;;;;;;9.10;7.00;;;;;;;23.43;65.38;101136.84;1792502;80;28344;-55
2022/08/07 06:01:53;;;;;;;11.05;7.22;;;;;;;23.51;64.89;101139.90;1792766;80;25541;-55
2022/08/07 06:04:22;;;;;;;15.40;7.15;;;;;;;23.59;64.71;101146.53;1792385;80;25801;-55
2022/08/07 06:06:49;;;;;;;15.55;7.72;;;;;;;23.69;64.31;101148.31;1792765;80;25730;-55
2022/08/07 06:09:17;;;;;;;9.65;7.47;;;;;;;23.80;64.08;101145.98;1810008;77;25835;-53
2022/08/07 06:11:47;;;;;;;14.65;7.25;;;;;;;23.88;63.95;101139.70;1784844;79;28281;-55
2022/08/07 06:14:15;;;;;;;21.25;8.03;;;;;;;23.97;63.57;101148.59;1795469;78;25827;-55
2022/08/07 06:16:46;;;;;;;17.07;7.55;;;;;;;24.02;63.51;101150.15;1792475;79;25496;-56
2022/08/07 06:19:17;;;;;;;17.75;7.83;;;;;;;24.09;63.34;101152.88;1792591;80;25722;-55
2022/08/07 06:21:48;;;;;;;15.83;7.35;;;;;;;24.15;62.56;101149.80;1792581;80;25793;-55
2022/08/07 06:24:15;;;;;;;13.22;7.75;;;;;;;24.25;61.91;101153.45;1792496;80;27467;-55
2022/08/07 06:26:43;;;;;;;12.20;7.35;;;;;;;24.34;61.63;101152.14;1792433;80;25734;-54
2022/08/07 06:29:10;;;;;;;17.45;8.43;;;;;;;24.40;61.60;101154.00;1792832;78;25794;-55
2022/08/07 06:31:37;;;;;;;14.93;7.75;;;;;;;24.47;61.15;101149.33;1792379;80;25912;-56
2022/08/07 06:34:06;;;;;;;14.13;8.03;;;;;;;24.54;61.69;101149.27;1792775;78;25687;-55
2022/08/07 06:36:33;;;;;;;12.03;7.60;;;;;;;24.59;61.22;101147.23;1763439;80;27625;-56
2022/08/07 06:39:01;;;;;;;14.00;7.00;;;;;;;24.65;60.67;101153.25;1792263;80;25770;-54
2022/08/07 06:41:35;;;;;;;8.80;7.12;;;;;;;24.68;60.11;101144.05;1792854;80;25776;-56
2022/08/07 06:44:06;;;;;;;13.15;7.65;;;;;;;24.72;60.01;101147.20;1792607;80;26408;-55
2022/08/07 06:46:34;;;;;;;9.50;7.72;;;;;;;24.78;59.95;101151.81;1792694;79;25735;-55
2022/08/07 06:49:01;;;;;;;12.10;7.33;;;;;;;24.83;59.93;101151.97;1792474;80;27539;-55
2022/08/07 06:51:32;;;;;;;12.00;7.67;;;;;;;24.95;59.28;101158.14;1792715;80;25790;-55
2022/08/07 06:54:04;;;;;;;17.12;7.80;;;;;;;24.99;59.41;101153.34;1792358;80;25778;-55
2022/08/07 06:56:39;;;;;;;19.07;8.20;;;;;;;25.06;59.37;101158.81;1792524;80;26730;-53
2022/08/07 06:59:14;;;;;;;12.93;8.73;;;;;;;25.08;59.43;101150.31;1791591;78;25742;-56
2022/08/07 07:01:44;;;;;;;16.42;8.05;;;;;;;25.10;59.58;101144.06;1792150;80;27464;-55
2022/08/07 07:04:11;;;;;;;11.53;7.97;;;;;;;25.19;59.27;101153.73;1792387;80;25643;-55
2022/08/07 07:06:40;;;;;;;20.60;8.38;;;;;;;25.30;59.16;101148.87;1764130;80;25485;-55
2022/08/07 07:09:27;;;;;;;14.35;7.78;;;;;;;25.39;59.33;101147.20;1792556;78;25777;-55
2022/08/07 07:12:09;;;;;;;13.48;8.05;;;;;;;25.49;59.27;101143.95;1792445;78;25904;-55
2022/08/07 07:15:01;;;;;;;16.95;7.40;;;;;;;25.56;58.38;101141.45;1801131;79;27477;-56
2022/08/07 07:18:07;;;;;;;16.20;7.75;;;;;;;25.66;58.05;101147.80;1811750;79;25655;-54
2022/08/07 07:20:43;;;;;;;10.68;7.47;;;;;;;25.71;57.85;101148.50;1811461;79;25812;-55
2022/08/07 07:23:13;;;;;;;11.90;7.80;;;;;;;25.84;57.16;101149.75;1809709;77;44385;-55
2022/08/07 07:25:42;;;;;;;11.05;7.45;;;;;;;25.98;57.10;101150.95;1792602;80;25828;-55
2022/08/07 07:28:23;;;;;;;15.75;7.83;;;;;;;26.08;56.31;101146.64;1792368;80;27519;-55
2022/08/07 07:31:00;;;;;;;13.18;7.67;;;;;;;26.17;56.43;101148.53;1792322;80;25953;-55
2022/08/07 07:33:30;;;;;;;12.47;8.53;;;;;;;26.25;56.52;101149.59;1791720;80;25789;-55
2022/08/07 07:35:58;;;;;;;12.43;7.25;;;;;;;26.32;56.53;101163.30;1792713;80;25818;-54
2022/08/07 07:38:25;;;;;;;15.98;7.00;;;;;;;26.40;55.96;101161.59;1791163;80;25782;-56
2022/08/07 07:40:56;;;;;;;9.28;7.55;;;;;;;26.44;54.97;101157.84;1791217;80;28478;-56
2022/08/07 07:43:26;;;;;;;12.05;7.35;;;;;;;26.50;54.99;101161.03;1792445;80;25755;-54
2022/08/07 07:45:54;;;;;;;11.65;7.28;;;;;;;26.59;54.98;101162.94;1791964;80;25512;-56
2022/08/07 07:48:22;;;;;;;10.18;7.28;;;;;;;26.64;54.66;101164.44;1790744;80;26340;-55
2022/08/07 07:50:51;;;;;;;8.95;6.65;;;;;;;26.68;53.84;101164.81;1790502;80;25826;-54
2022/08/07 07:53:21;;;;;;;12.75;6.22;;;;;;;26.73;53.93;101170.48;1790700;80;27313;-55
2022/08/07 07:55:51;;;;;;;10.90;6.15;;;;;;;26.78;53.75;101166.50;1791064;80;26349;-54
2022/08/07 07:58:19;;;;;;;8.53;6.55;;;;;;;26.94;51.54;101156.72;1789691;80;25796;-55
2022/08/07 08:00:48;;;;;;;16.25;6.95;;;;;;;27.10;51.05;101157.09;1790474;80;25702;-55
2022/08/07 08:03:18;;;;;;;10.32;6.35;;;;;;;27.21;52.02;101155.45;1790427;80;25770;-55
2022/08/07 08:05:46;;;;;;;12.55;6.80;;;;;;;27.26;51.74;101162.47;1790765;80;27440;-55
2022/08/07 08:08:14;;;;;;;10.25;6.72;;;;;;;27.37;51.57;101156.64;1791599;79;26081;-56
2022/08/07 08:10:42;;;;;;;12.82;6.78;;;;;;;27.43;50.65;101148.28;1792387;80;25758;-56
2022/08/07 08:13:10;;;;;;;9.10;6.50;;;;;;;27.48;51.15;101151.15;1792788;80;26216;-55
2022/08/07 08:15:40;;;;;;;15.23;7.40;;;;;;;27.54;50.46;101149.34;1792579;80;25718;-55
2022/08/07 08:18:10;;;;;;;11.65;6.75;;;;;;;27.58;50.54;101151.09;1792495;80;27484;-55
2022/08/07 08:20:39;;;;;;;13.93;6.58;;;;;;;27.64;50.36;101152.91;1792628;80;25725;-55
2022/08/07 08:28:50;;;;;;;8.28;5.75;;;;;;;27.85;48.34;101151.44;1788869;80;25754;-56
2022/08/07 08:31:24;;;;;;;11.85;6.47;;;;;;;27.88;49.23;101155.08;1791301;80;27615;-55
2022/08/07 08:33:57;;;;;;;15.65;5.92;;;;;;;27.98;48.91;101152.23;1791412;80;25706;-55
2022/08/07 08:36:30;;;;;;;9.98;6.12;;;;;;;28.11;48.26;101150.62;1792523;80;25723;-56
2022/08/07 08:39:00;;;;;;;11.18;5.87;;;;;;;28.23;47.86;101145.05;1792252;80;26227;-55
2022/08/07 08:41:48;;;;;;;15.80;6.55;;;;;;;28.33;48.44;101152.73;1791843;80;25703;-56
2022/08/07 08:44:27;;;;;;;13.68;6.33;;;;;;;28.42;47.45;101158.14;1791866;80;27491;-55
2022/08/07 08:47:28;;;;;;;9.83;5.87;;;;;;;28.54;47.85;101150.64;1793197;80;25773;-55
2022/08/07 08:50:27;;;;;;;7.75;5.17;;;;;;;28.69;46.75;101145.94;1794120;80;25741;-54
2022/08/07 08:53:08;;;;;;;12.23;4.60;;;;;;;28.98;45.36;101145.93;1794126;80;25730;-56
2022/08/07 08:55:58;;;;;;;8.23;5.00;;;;;;;29.17;44.75;101144.30;1793825;80;25733;-55
2022/08/07 08:58:48;;;;;;;7.08;4.50;;;;;;;29.40;44.78;101142.45;1793927;80;27523;-56
2022/08/07 09:01:32;;;;;;;9.35;5.05;;;;;;;29.56;43.36;101140.20;1793858;80;25784;-56
2022/08/07 09:04:17;;;;;;;9.20;4.92;;;;;;;29.71;42.86;101148.45;1793850;80;26232;-56
2022/08/07 09:07:20;;;;;;;4.92;4.10;;;;;;;29.91;41.33;101152.05;1793781;80;25699;-56
2022/08/07 09:10:16;;;;;;;9.95;4.42;;;;;;;30.11;41.02;101151.48;1793321;80;25800;-56
2022/08/07 09:13:18;;;;;;;11.83;4.50;;;;;;;30.28;39.82;101148.66;1793834;80;27489;-55
2022/08/07 09:16:03;;;;;;;6.30;4.30;;;;;;;30.49;41.13;101148.33;1793727;80;25972;-55
2022/08/07 09:19:13;;;;;;;11.45;3.92;;;;;;;30.81;40.47;101143.95;1793842;80;25729;-56
2022/08/07 09:22:16;;;;;;;11.78;4.67;;;;;;;31.06;38.82;101145.55;1793848;80;25794;-55
2022/08/07 09:25:11;;;;;;;12.10;4.70;;;;;;;31.22;38.58;101145.70;1793515;80;25681;-55
2022/08/07 09:28:05;;;;;;;11.75;4.03;;;;;;;31.42;38.36;101142.78;1763577;80;28335;-56
2022/08/07 09:31:23;;;;;;;12.50;4.42;;;;;;;31.56;37.70;101135.63;1773682;80;25766;-56
2022/08/07 09:34:04;;;;;;;9.28;4.75;;;;;;;31.97;37.86;101135.03;1775337;80;25732;-56
2022/08/07 09:36:45;;;;;;;8.98;5.03;;;;;;;32.48;37.65;101125.21;1784031;79;25482;-56
2022/08/07 09:39:43;;;;;;;9.15;5.28;;;;;;;32.93;37.36;101123.05;1770836;79;26127;-56
2022/08/07 09:42:55;;;;;;;12.63;4.35;;;;;;;33.38;36.75;101129.44;1784061;80;28529;-56
2022/08/07 09:45:48;;;;;;;9.40;4.53;;;;;;;33.83;36.25;101128.20;1784078;80;26193;-57
2022/08/07 09:48:52;;;;;;;7.22;3.75;;;;;;;34.23;34.35;101122.74;1750289;80;25577;-56
2022/08/07 09:51:51;;;;;;;11.65;4.28;;;;;;;34.67;32.51;101116.33;1781397;80;25762;-56
2022/08/07 09:54:23;;;;;;;9.50;4.20;;;;;;;34.85;32.77;101130.14;1781018;80;25797;-56
2022/08/07 09:57:22;;;;;;;6.45;4.25;;;;;;;35.30;32.10;101120.81;1780633;80;27551;-56
2022/08/07 10:00:10;;;;;;;6.35;4.50;;;;;;;35.57;32.04;101118.31;1781131;80;25727;-55
2022/08/07 10:03:28;;;;;;;7.22;3.87;;;;;;;35.73;32.30;101115.32;1781419;80;25745;-55
2022/08/07 10:06:23;;;;;;;6.03;4.35;;;;;;;35.98;31.50;101119.80;1781001;80;25810;-56
2022/08/07 10:09:27;;;;;;;8.80;5.30;;;;;;;36.25;31.27;101110.48;1781130;80;25775;-56
2022/08/07 10:12:35;;;;;;;7.97;4.62;;;;;;;36.21;32.91;101117.27;1781129;80;28508;-56
2022/08/07 10:15:41;;;;;;;15.83;5.00;;;;;;;36.53;32.00;101110.08;1768348;80;25919;-56
2022/08/07 10:18:53;;;;;;;11.95;4.00;;;;;;;36.59;32.89;101110.83;1768012;79;25774;-56
2022/08/07 10:21:34;;;;;;;10.35;4.37;;;;;;;36.90;32.26;101106.12;1803376;79;25768;-56
2022/08/07 10:24:21;;;;;;;9.60;4.17;;;;;;;36.34;33.59;101111.47;1793719;79;26032;-55
2022/08/07 10:27:27;;;;;;;26.23;4.78;;;;;;;36.03;34.31;101116.95;1784148;80;28504;-56
2022/08/07 10:30:11;;;;;;;18.50;3.80;;;;;;;35.75;34.80;101115.05;1716415;80;25787;-56
2022/08/07 10:33:22;;;;;;;18.98;5.42;;;;;;;36.14;34.58;101110.63;1784194;80;25494;-56
2022/08/07 10:36:33;;;;;;;14.47;3.75;;;;;;;36.54;33.80;101110.90;1784138;80;27587;-56
2022/08/07 10:39:09;;;;;;;16.32;3.98;;;;;;;36.84;33.63;101115.19;1784069;80;25746;-55
2022/08/07 10:41:41;;;;;;;23.00;3.70;;;;;;;36.58;32.88;101115.59;1782580;79;29570;-56
2022/08/07 10:44:27;;;;;;;6.60;3.08;;;;;;;35.69;33.86;101126.28;1750237;82;31523;-55
2022/08/07 10:47:02;;;;;;;15.88;4.00;;;;;;;34.87;35.41;101115.32;1772095;80;25807;-55
2022/08/07 10:49:56;;;;;;;15.32;3.30;;;;;;;35.26;34.81;101110.79;1751182;80;26126;-55
2022/08/07 10:52:51;;;;;;;7.05;2.80;;;;;;;35.48;34.68;101122.06;1750085;82;25711;-55
2022/08/07 10:55:27;;;;;;;16.65;2.83;;;;;;;35.79;34.49;101111.34;1741635;82;27443;-55
2022/08/07 10:58:26;;;;;;;12.07;2.70;;;;;;;35.95;33.14;101105.57;1747853;82;25854;-55
2022/08/07 11:01:01;;;;;;;7.90;3.15;;;;;;;35.88;33.38;101110.95;1747761;82;25810;-56
2022/08/07 11:03:41;;;;;;;8.13;3.27;;;;;;;36.23;32.96;101109.95;1749911;82;25810;-56
2022/08/07 11:06:19;;;;;;;5.65;2.65;;;;;;;36.43;32.61;101117.23;1750243;81;26100;-56
2022/08/07 11:09:07;;;;;;;7.92;2.47;;;;;;;36.51;31.82;101133.36;1732064;81;27503;-55
2022/08/07 11:11:48;;;;;;;7.92;2.40;;;;;;;36.49;32.06;101122.47;1766147;81;25718;-56
2022/08/07 11:14:41;;;;;;;4.90;2.25;;;;;;;35.91;32.50;101110.94;1769262;80;25869;-55
2022/08/07 11:17:19;;;;;;;6.45;2.40;;;;;;;35.96;32.99;101114.23;1770411;81;25714;-57
2022/08/07 11:20:09;;;;;;;8.30;2.65;;;;;;;36.10;32.04;101112.35;1770609;81;26269;-56
2022/08/07 11:22:59;;;;;;;12.80;2.62;;;;;;;35.99;32.13;101108.87;1770010;81;28473;-55
2022/08/07 11:25:37;;;;;;;9.13;2.75;;;;;;;36.17;31.66;101115.64;1785801;80;25758;-55
2022/08/07 11:28:22;;;;;;;11.00;4.40;;;;;;;36.10;31.84;101108.73;1786521;79;25831;-56
2022/08/07 11:31:18;;;;;;;8.93;2.83;;;;;;;36.56;31.74;101116.48;1786838;79;25615;-56
2022/08/07 11:33:59;;;;;;;6.37;2.42;;;;;;;36.62;30.62;101117.23;1786669;80;25780;-56
2022/08/07 11:37:11;;;;;;;6.80;1.82;;;;;;;36.22;31.29;101120.30;1786148;80;27646;-56
2022/08/07 11:40:07;;;;;;;3.52;2.25;;;;;;;36.58;31.27;101114.77;1786517;80;25832;-56
2022/08/07 11:42:57;;;;;;;4.95;2.10;;;;;;;36.22;30.96;101119.48;1786009;80;25675;-56
2022/08/07 11:46:01;;;;;;;9.10;2.40;;;;;;;36.77;30.79;101134.34;1786276;80;25724;-56
2022/08/07 11:49:06;;;;;;;7.10;2.08;;;;;;;36.37;30.57;101138.86;1784878;80;25748;-56
2022/08/07 11:51:56;;;;;;;3.33;1.77;;;;;;;36.64;29.99;101157.83;1784748;80;27428;-56
2022/08/07 11:54:37;;;;;;;17.40;2.35;;;;;;;36.63;30.44;101144.09;1784904;80;26155;-55
2022/08/07 11:57:48;;;;;;;7.47;2.17;;;;;;;37.21;29.53;101133.05;1785177;80;25715;-56
2022/08/07 12:00:19;;;;;;;5.97;1.92;;;;;;;37.17;28.83;101149.40;1716089;82;26412;-57
2022/08/07 12:03:15;;;;;;;5.58;1.92;;;;;;;37.09;29.06;101150.95;1717296;83;26407;-56
2022/08/07 12:05:53;;;;;;;13.53;2.85;;;;;;;36.61;29.58;101145.81;1757937;80;27584;-56